PAA2 VTBD-VHHX
Flight info
| Callsign | PAA2 |
|---|---|
| Flight time | N/A |
| Altitude | 39000 |
| Route | ROBKA1B ROBKA A1 SANOT Y15 GUROK A202 VILAO/K0900F390 A202 ASSAD/K0898S1190 A202 SIKOU/N0483F391 |
| Aircraft | B742/H-SDFHIRWXY/L |
Departure
| Time | 2026-04-30 13:09 |
|---|---|
| Airport | Don Mueang International Airport (VTBD) |
Arrival
| Time | N/A |
|---|---|
| Airport | Hong Kong International Airport Kai Tak (VHHX) |
| Time | Latitude | Longitude | Altitude | Speed | Heading |
|---|---|---|---|---|---|
| 2026-04-30 12:32 | 13.91432 | 100.60126 | 31 ft | 0 kts | 208° |
| 2026-04-30 12:57 | 13.91434 | 100.60127 | 31 ft | 1 kts | 208° |
| 2026-04-30 12:57 | 13.91447 | 100.60135 | 31 ft | 2 kts | 208° |
| 2026-04-30 12:58 | 13.91460 | 100.60142 | 32 ft | 2 kts | 208° |
| 2026-04-30 12:58 | 13.91469 | 100.60147 | 32 ft | 2 kts | 207° |
| 2026-04-30 12:58 | 13.91484 | 100.60151 | 32 ft | 2 kts | 179° |
| 2026-04-30 12:58 | 13.91498 | 100.60147 | 32 ft | 2 kts | 154° |
| 2026-04-30 12:59 | 13.91510 | 100.60138 | 32 ft | 2 kts | 129° |
| 2026-04-30 12:59 | 13.91514 | 100.60130 | 32 ft | 0 kts | 118° |
| 2026-04-30 13:03 | 13.91512 | 100.60135 | 32 ft | 2 kts | 118° |
| 2026-04-30 13:03 | 13.91490 | 100.60177 | 32 ft | 10 kts | 118° |
| 2026-04-30 13:03 | 13.91450 | 100.60253 | 30 ft | 13 kts | 119° |
| 2026-04-30 13:03 | 13.91413 | 100.60343 | 27 ft | 13 kts | 88° |
| 2026-04-30 13:04 | 13.91473 | 100.60400 | 27 ft | 11 kts | 26° |
| 2026-04-30 13:04 | 13.91542 | 100.60437 | 28 ft | 11 kts | 27° |
| 2026-04-30 13:04 | 13.91620 | 100.60481 | 29 ft | 14 kts | 29° |
| 2026-04-30 13:04 | 13.91715 | 100.60533 | 29 ft | 15 kts | 27° |
| 2026-04-30 13:05 | 13.91812 | 100.60585 | 28 ft | 15 kts | 28° |
| 2026-04-30 13:05 | 13.91903 | 100.60636 | 27 ft | 14 kts | 31° |
| 2026-04-30 13:05 | 13.91994 | 100.60692 | 26 ft | 14 kts | 29° |
| 2026-04-30 13:06 | 13.92173 | 100.60790 | 27 ft | 15 kts | 27° |
| 2026-04-30 13:06 | 13.92275 | 100.60847 | 28 ft | 17 kts | 28° |
| 2026-04-30 13:06 | 13.92387 | 100.60910 | 27 ft | 18 kts | 29° |
| 2026-04-30 13:06 | 13.92497 | 100.60976 | 27 ft | 17 kts | 30° |
| 2026-04-30 13:07 | 13.92587 | 100.61021 | 27 ft | 8 kts | 26° |
| 2026-04-30 13:07 | 13.92631 | 100.61048 | 27 ft | 6 kts | 45° |
| 2026-04-30 13:07 | 13.92644 | 100.61098 | 26 ft | 8 kts | 101° |
| 2026-04-30 13:07 | 13.92617 | 100.61155 | 24 ft | 9 kts | 120° |
| 2026-04-30 13:08 | 13.92567 | 100.61195 | 22 ft | 9 kts | 185° |
| 2026-04-30 13:08 | 13.92513 | 100.61173 | 23 ft | 6 kts | 210° |
| 2026-04-30 13:08 | 13.92505 | 100.61167 | 23 ft | 9 kts | 210° |
| 2026-04-30 13:08 | 13.92235 | 100.61015 | 23 ft | 78 kts | 208° |
| 2026-04-30 13:09 | 13.91572 | 100.60642 | 26 ft | 138 kts | 208° |
| 2026-04-30 13:09 | 13.90575 | 100.60086 | 98 ft | 179 kts | 208° |
| 2026-04-30 13:09 | 13.89496 | 100.59467 | 701 ft | 177 kts | 208° |
| 2026-04-30 13:09 | 13.88470 | 100.58831 | 1424 ft | 171 kts | 216° |
| 2026-04-30 13:10 | 13.87686 | 100.57879 | 1881 ft | 186 kts | 245° |
| 2026-04-30 13:10 | 13.87571 | 100.56503 | 2022 ft | 205 kts | 282° |
| 2026-04-30 13:10 | 13.88092 | 100.55091 | 2200 ft | 221 kts | 294° |
| 2026-04-30 13:10 | 13.88851 | 100.53630 | 2353 ft | 237 kts | 289° |
| 2026-04-30 13:11 | 13.88997 | 100.51920 | 2504 ft | 251 kts | 253° |
| 2026-04-30 13:11 | 13.88201 | 100.50297 | 2663 ft | 267 kts | 232° |
| 2026-04-30 13:11 | 13.87040 | 100.48733 | 3106 ft | 277 kts | 230° |
| 2026-04-30 13:11 | 13.85835 | 100.47166 | 3797 ft | 278 kts | 230° |
| 2026-04-30 13:12 | 13.84553 | 100.45717 | 4387 ft | 277 kts | 213° |
| 2026-04-30 13:12 | 13.82782 | 100.44994 | 4939 ft | 275 kts | 184° |
| 2026-04-30 13:12 | 13.80857 | 100.44991 | 5507 ft | 276 kts | 175° |
| 2026-04-30 13:13 | 13.76997 | 100.45251 | 6673 ft | 282 kts | 174° |
| 2026-04-30 13:13 | 13.75015 | 100.45400 | 7276 ft | 283 kts | 174° |
| 2026-04-30 13:13 | 13.71065 | 100.45725 | 8443 ft | 288 kts | 174° |
| 2026-04-30 13:14 | 13.69073 | 100.46024 | 8993 ft | 290 kts | 160° |
| 2026-04-30 13:14 | 13.67387 | 100.47140 | 9522 ft | 294 kts | 133° |
| 2026-04-30 13:14 | 13.65672 | 100.50956 | 10333 ft | 314 kts | 96° |
| 2026-04-30 13:15 | 13.65766 | 100.53261 | 10538 ft | 332 kts | 82° |
| 2026-04-30 13:15 | 13.66965 | 100.58079 | 11098 ft | 361 kts | 63° |
| 2026-04-30 13:15 | 13.68375 | 100.60163 | 11789 ft | 362 kts | 50° |
| 2026-04-30 13:16 | 13.70033 | 100.62109 | 12421 ft | 364 kts | 51° |
| 2026-04-30 13:16 | 13.71608 | 100.64165 | 13014 ft | 368 kts | 54° |
| 2026-04-30 13:16 | 13.73072 | 100.66351 | 13625 ft | 371 kts | 58° |
| 2026-04-30 13:17 | 13.75828 | 100.70873 | 14814 ft | 377 kts | 59° |
| 2026-04-30 13:17 | 13.77210 | 100.73197 | 15389 ft | 381 kts | 59° |
| 2026-04-30 13:17 | 13.79445 | 100.76951 | 16320 ft | 386 kts | 59° |
| 2026-04-30 13:18 | 13.80852 | 100.79309 | 16874 ft | 390 kts | 59° |
| 2026-04-30 13:18 | 13.83695 | 100.84071 | 17979 ft | 396 kts | 59° |
| 2026-04-30 13:18 | 13.85147 | 100.86504 | 18511 ft | 400 kts | 59° |
| 2026-04-30 13:19 | 13.86615 | 100.88965 | 19031 ft | 404 kts | 59° |
| 2026-04-30 13:19 | 13.88096 | 100.91445 | 19562 ft | 407 kts | 59° |
| 2026-04-30 13:19 | 13.89614 | 100.93991 | 20097 ft | 410 kts | 59° |
| 2026-04-30 13:19 | 13.91135 | 100.96541 | 20606 ft | 413 kts | 59° |
| 2026-04-30 13:20 | 13.92660 | 100.99100 | 21092 ft | 417 kts | 58° |
| 2026-04-30 13:20 | 13.94229 | 101.01733 | 21572 ft | 420 kts | 58° |
| 2026-04-30 13:20 | 13.95798 | 101.04367 | 22039 ft | 424 kts | 58° |
| 2026-04-30 13:20 | 13.97393 | 101.07044 | 22504 ft | 427 kts | 58° |
| 2026-04-30 13:21 | 13.99008 | 101.09757 | 22920 ft | 431 kts | 58° |
| 2026-04-30 13:21 | 14.00640 | 101.12498 | 23333 ft | 435 kts | 58° |
| 2026-04-30 13:21 | 14.02268 | 101.15235 | 23740 ft | 439 kts | 58° |
| 2026-04-30 13:22 | 14.05605 | 101.20847 | 24545 ft | 447 kts | 58° |
| 2026-04-30 13:22 | 14.07304 | 101.23704 | 24980 ft | 450 kts | 57° |
| 2026-04-30 13:22 | 14.10718 | 101.29451 | 25752 ft | 458 kts | 57° |
| 2026-04-30 13:23 | 14.12455 | 101.32376 | 26115 ft | 462 kts | 57° |
| 2026-04-30 13:23 | 14.15961 | 101.38284 | 26897 ft | 468 kts | 57° |
| 2026-04-30 13:24 | 14.18974 | 101.44410 | 27554 ft | 477 kts | 67° |
| 2026-04-30 13:24 | 14.21291 | 101.51111 | 28238 ft | 483 kts | 70° |
| 2026-04-30 13:25 | 14.23578 | 101.57993 | 28862 ft | 490 kts | 69° |
| 2026-04-30 13:25 | 14.25947 | 101.64985 | 29488 ft | 496 kts | 69° |
| 2026-04-30 13:26 | 14.29485 | 101.75316 | 30328 ft | 503 kts | 69° |
| 2026-04-30 13:26 | 14.31867 | 101.82272 | 30892 ft | 507 kts | 69° |
| 2026-04-30 13:27 | 14.34266 | 101.89286 | 31399 ft | 512 kts | 69° |
| 2026-04-30 13:28 | 14.37898 | 101.99924 | 32170 ft | 520 kts | 69° |
| 2026-04-30 13:28 | 14.40346 | 102.07099 | 32646 ft | 525 kts | 69° |
| 2026-04-30 13:28 | 14.41583 | 102.10730 | 32964 ft | 526 kts | 69° |
| 2026-04-30 13:29 | 14.44032 | 102.17924 | 33535 ft | 530 kts | 69° |
| 2026-04-30 13:29 | 14.46538 | 102.25294 | 34343 ft | 529 kts | 69° |
| 2026-04-30 13:30 | 14.50172 | 102.35995 | 35596 ft | 525 kts | 69° |
| 2026-04-30 13:31 | 14.52620 | 102.43215 | 36214 ft | 525 kts | 69° |
| 2026-04-30 13:31 | 14.56197 | 102.53777 | 37181 ft | 523 kts | 69° |
| 2026-04-30 13:32 | 14.58599 | 102.60879 | 37724 ft | 522 kts | 69° |
| 2026-04-30 13:32 | 14.60986 | 102.67944 | 38268 ft | 521 kts | 69° |
| 2026-04-30 13:33 | 14.63355 | 102.74964 | 38689 ft | 521 kts | 69° |
| 2026-04-30 13:33 | 14.65746 | 102.82056 | 38876 ft | 526 kts | 69° |
| 2026-04-30 13:34 | 14.66949 | 102.85626 | 38875 ft | 529 kts | 69° |
| 2026-04-30 13:35 | 14.71315 | 102.98612 | 38875 ft | 536 kts | 69° |
| 2026-04-30 13:36 | 14.76212 | 103.13207 | 38876 ft | 538 kts | 70° |
| 2026-04-30 13:36 | 14.79870 | 103.24131 | 38871 ft | 539 kts | 70° |
| 2026-04-30 13:37 | 14.83470 | 103.34907 | 38863 ft | 510 kts | 70° |
| 2026-04-30 13:38 | 14.85968 | 103.41635 | 38870 ft | 503 kts | 59° |
| 2026-04-30 13:38 | 14.87846 | 103.44693 | 38872 ft | 504 kts | 51° |
| 2026-04-30 13:39 | 14.97010 | 103.55878 | 38868 ft | 517 kts | 46° |
| 2026-04-30 13:40 | 15.04073 | 103.64315 | 38859 ft | 514 kts | 47° |
| 2026-04-30 13:40 | 15.08729 | 103.69944 | 38860 ft | 515 kts | 47° |
| 2026-04-30 13:41 | 15.13432 | 103.75545 | 38852 ft | 516 kts | 42° |
| 2026-04-30 13:41 | 15.16209 | 103.77916 | 38859 ft | 511 kts | 31° |
| 2026-04-30 13:41 | 15.19234 | 103.79770 | 38858 ft | 507 kts | 24° |
| 2026-04-30 13:42 | 15.25693 | 103.82791 | 38854 ft | 505 kts | 19° |
| 2026-04-30 13:42 | 15.35437 | 103.86935 | 38856 ft | 505 kts | 19° |
| 2026-04-30 13:43 | 15.41956 | 103.89766 | 38858 ft | 506 kts | 19° |
| 2026-04-30 13:43 | 15.48395 | 103.92593 | 38858 ft | 505 kts | 19° |
| 2026-04-30 13:44 | 15.54883 | 103.95446 | 38858 ft | 507 kts | 19° |
| 2026-04-30 13:44 | 15.61391 | 103.98311 | 38860 ft | 507 kts | 19° |
| 2026-04-30 13:45 | 15.71116 | 104.02594 | 38860 ft | 506 kts | 19° |
| 2026-04-30 13:46 | 15.77637 | 104.05468 | 38866 ft | 507 kts | 19° |
| 2026-04-30 13:46 | 15.84129 | 104.08332 | 38865 ft | 506 kts | 19° |
| 2026-04-30 13:47 | 15.90632 | 104.11201 | 38875 ft | 508 kts | 19° |
| 2026-04-30 13:47 | 15.97114 | 104.14066 | 38873 ft | 506 kts | 19° |
| 2026-04-30 13:48 | 16.03569 | 104.17031 | 38872 ft | 509 kts | 26° |
| 2026-04-30 13:48 | 16.09171 | 104.21629 | 38884 ft | 519 kts | 42° |
| 2026-04-30 13:49 | 16.14081 | 104.27174 | 38892 ft | 520 kts | 46° |
| 2026-04-30 13:49 | 16.18863 | 104.32844 | 38891 ft | 517 kts | 46° |
| 2026-04-30 13:50 | 16.23691 | 104.38481 | 38901 ft | 519 kts | 45° |
| 2026-04-30 13:50 | 16.30923 | 104.46837 | 38903 ft | 517 kts | 45° |
| 2026-04-30 13:51 | 16.35729 | 104.52384 | 38909 ft | 518 kts | 45° |
| 2026-04-30 13:51 | 16.40553 | 104.57960 | 38909 ft | 518 kts | 45° |
| 2026-04-30 13:52 | 16.45361 | 104.63522 | 38907 ft | 517 kts | 45° |
| 2026-04-30 13:52 | 16.50190 | 104.69115 | 38905 ft | 517 kts | 46° |
| 2026-04-30 13:53 | 16.55056 | 104.74761 | 38913 ft | 518 kts | 47° |
| 2026-04-30 13:53 | 16.59334 | 104.80840 | 38919 ft | 520 kts | 55° |
| 2026-04-30 13:54 | 16.63232 | 104.87222 | 38919 ft | 521 kts | 56° |
| 2026-04-30 13:54 | 16.67125 | 104.93605 | 38918 ft | 520 kts | 56° |
| 2026-04-30 13:55 | 16.71025 | 104.99909 | 38925 ft | 519 kts | 55° |
| 2026-04-30 13:55 | 16.74966 | 105.06247 | 38924 ft | 522 kts | 55° |
| 2026-04-30 13:56 | 16.78898 | 105.12573 | 38923 ft | 519 kts | 55° |
| 2026-04-30 13:56 | 16.82831 | 105.18909 | 38929 ft | 520 kts | 55° |
| 2026-04-30 13:57 | 16.86764 | 105.25253 | 38937 ft | 520 kts | 55° |
| 2026-04-30 13:57 | 16.90703 | 105.31611 | 38939 ft | 520 kts | 55° |
| 2026-04-30 13:58 | 16.96604 | 105.41149 | 38949 ft | 521 kts | 55° |
| 2026-04-30 13:59 | 17.00550 | 105.47533 | 38953 ft | 520 kts | 55° |
| 2026-04-30 13:59 | 17.04456 | 105.53859 | 38961 ft | 520 kts | 55° |
| 2026-04-30 14:00 | 17.08394 | 105.60242 | 38956 ft | 522 kts | 55° |
| 2026-04-30 14:00 | 17.14281 | 105.69796 | 38968 ft | 519 kts | 55° |
| 2026-04-30 14:01 | 17.18206 | 105.76173 | 38973 ft | 521 kts | 55° |
| 2026-04-30 14:01 | 17.22136 | 105.82564 | 38968 ft | 522 kts | 55° |
| 2026-04-30 14:02 | 17.26052 | 105.88939 | 38979 ft | 520 kts | 55° |
| 2026-04-30 14:02 | 17.29974 | 105.95329 | 38987 ft | 522 kts | 55° |
| 2026-04-30 14:03 | 17.33890 | 106.01717 | 38991 ft | 521 kts | 55° |
| 2026-04-30 14:03 | 17.37784 | 106.08073 | 39014 ft | 521 kts | 55° |
| 2026-04-30 14:04 | 17.41683 | 106.14443 | 39017 ft | 522 kts | 55° |
| 2026-04-30 14:04 | 17.45582 | 106.20819 | 39016 ft | 521 kts | 55° |
| 2026-04-30 14:05 | 17.49482 | 106.27204 | 39011 ft | 521 kts | 55° |
| 2026-04-30 14:05 | 17.53398 | 106.33621 | 39001 ft | 522 kts | 55° |
| 2026-04-30 14:06 | 17.59240 | 106.43206 | 38990 ft | 520 kts | 55° |
| 2026-04-30 14:07 | 17.65092 | 106.52821 | 38981 ft | 522 kts | 55° |
| 2026-04-30 14:08 | 17.70911 | 106.62395 | 38978 ft | 520 kts | 55° |
| 2026-04-30 14:08 | 17.76814 | 106.72119 | 38978 ft | 521 kts | 56° |
| 2026-04-30 14:09 | 17.80749 | 106.78612 | 38974 ft | 519 kts | 56° |
| 2026-04-30 14:10 | 17.86610 | 106.88293 | 38976 ft | 521 kts | 56° |
| 2026-04-30 14:10 | 17.90504 | 106.94733 | 38972 ft | 518 kts | 56° |
| 2026-04-30 14:11 | 17.94348 | 107.01099 | 38972 ft | 518 kts | 56° |
| 2026-04-30 14:11 | 17.98219 | 107.07512 | 38968 ft | 520 kts | 56° |
| 2026-04-30 14:12 | 18.02078 | 107.13912 | 38965 ft | 517 kts | 56° |
| 2026-04-30 14:12 | 18.05938 | 107.20322 | 38967 ft | 519 kts | 56° |
| 2026-04-30 14:13 | 18.09802 | 107.26743 | 38966 ft | 520 kts | 56° |
| 2026-04-30 14:13 | 18.13767 | 107.33340 | 38965 ft | 518 kts | 56° |
| 2026-04-30 14:14 | 18.17661 | 107.39825 | 38966 ft | 519 kts | 56° |
| 2026-04-30 14:14 | 18.21568 | 107.46338 | 38966 ft | 519 kts | 56° |
| 2026-04-30 14:15 | 18.25396 | 107.52726 | 39051 ft | 516 kts | 56° |
| 2026-04-30 14:15 | 18.29211 | 107.59098 | 39065 ft | 520 kts | 56° |
| 2026-04-30 14:16 | 18.33095 | 107.65588 | 39061 ft | 520 kts | 56° |
| 2026-04-30 14:16 | 18.37468 | 107.71753 | 39065 ft | 515 kts | 48° |
| 2026-04-30 14:17 | 18.42164 | 107.77628 | 39066 ft | 518 kts | 47° |
| 2026-04-30 14:17 | 18.46847 | 107.83489 | 39065 ft | 517 kts | 48° |
| 2026-04-30 14:18 | 18.51400 | 107.89264 | 39065 ft | 516 kts | 48° |
| 2026-04-30 14:18 | 18.58284 | 107.98044 | 39066 ft | 519 kts | 49° |
| 2026-04-30 14:19 | 18.65151 | 108.06818 | 39065 ft | 517 kts | 49° |
| 2026-04-30 14:20 | 18.69707 | 108.12644 | 39066 ft | 519 kts | 49° |
| 2026-04-30 14:20 | 18.76570 | 108.21430 | 39065 ft | 517 kts | 48° |
| 2026-04-30 14:21 | 18.81136 | 108.27284 | 39065 ft | 517 kts | 48° |
| 2026-04-30 14:22 | 18.88004 | 108.36096 | 39065 ft | 517 kts | 48° |
| 2026-04-30 14:22 | 18.94848 | 108.44891 | 39066 ft | 518 kts | 48° |
| 2026-04-30 14:23 | 19.03960 | 108.56622 | 39065 ft | 517 kts | 48° |
| 2026-04-30 14:24 | 19.10802 | 108.65442 | 39066 ft | 517 kts | 49° |
| 2026-04-30 14:25 | 19.19902 | 108.77196 | 39069 ft | 518 kts | 49° |
| 2026-04-30 14:26 | 19.26722 | 108.86020 | 39069 ft | 515 kts | 49° |
| 2026-04-30 14:27 | 19.33515 | 108.94820 | 39072 ft | 517 kts | 49° |
| 2026-04-30 14:27 | 19.38035 | 109.00684 | 39070 ft | 514 kts | 49° |
| 2026-04-30 14:28 | 19.44835 | 109.09515 | 39079 ft | 516 kts | 49° |
| 2026-04-30 14:28 | 19.49354 | 109.15390 | 39081 ft | 515 kts | 49° |
| 2026-04-30 14:29 | 19.58381 | 109.27146 | 39077 ft | 514 kts | 49° |
| 2026-04-30 14:31 | 19.69639 | 109.41839 | 39081 ft | 514 kts | 49° |
| 2026-04-30 14:31 | 19.76357 | 109.50625 | 39080 ft | 513 kts | 49° |
| 2026-04-30 14:32 | 19.83122 | 109.59485 | 39080 ft | 512 kts | 49° |
| 2026-04-30 14:33 | 19.87583 | 109.65334 | 39084 ft | 512 kts | 49° |
| 2026-04-30 14:33 | 19.94304 | 109.74158 | 39076 ft | 513 kts | 49° |
| 2026-04-30 14:34 | 19.98776 | 109.80036 | 39080 ft | 513 kts | 50° |
| 2026-04-30 14:34 | 20.03262 | 109.85940 | 39084 ft | 512 kts | 50° |
| 2026-04-30 14:35 | 20.09976 | 109.94786 | 39079 ft | 513 kts | 50° |
| 2026-04-30 14:36 | 20.14435 | 110.00668 | 39080 ft | 512 kts | 50° |
| 2026-04-30 14:36 | 20.18891 | 110.06553 | 39088 ft | 512 kts | 49° |
| 2026-04-30 14:37 | 20.23354 | 110.12453 | 39084 ft | 513 kts | 50° |
| 2026-04-30 14:37 | 20.27824 | 110.18367 | 39085 ft | 513 kts | 50° |
| 2026-04-30 14:38 | 20.32304 | 110.24300 | 39086 ft | 514 kts | 50° |
| 2026-04-30 14:38 | 20.36770 | 110.30223 | 39093 ft | 514 kts | 50° |
| 2026-04-30 14:39 | 20.41246 | 110.36165 | 39088 ft | 512 kts | 50° |
| 2026-04-30 14:39 | 20.45700 | 110.42082 | 39095 ft | 514 kts | 50° |
| 2026-04-30 14:40 | 20.51543 | 110.51645 | 39089 ft | 517 kts | 66° |
| 2026-04-30 14:40 | 20.54063 | 110.58778 | 39087 ft | 517 kts | 70° |
| 2026-04-30 14:41 | 20.56416 | 110.66032 | 39086 ft | 519 kts | 70° |
| 2026-04-30 14:41 | 20.58811 | 110.73255 | 39086 ft | 517 kts | 70° |
| 2026-04-30 14:42 | 20.61248 | 110.80485 | 39089 ft | 518 kts | 70° |
| 2026-04-30 14:42 | 20.63688 | 110.87701 | 39085 ft | 519 kts | 70° |
| 2026-04-30 14:43 | 20.66123 | 110.94913 | 39088 ft | 518 kts | 70° |
| 2026-04-30 14:43 | 20.68559 | 111.02147 | 39086 ft | 518 kts | 70° |
| 2026-04-30 14:44 | 20.70992 | 111.09383 | 39088 ft | 520 kts | 70° |
| 2026-04-30 14:44 | 20.73435 | 111.16659 | 39090 ft | 519 kts | 70° |
| 2026-04-30 14:45 | 20.75848 | 111.23859 | 39086 ft | 519 kts | 70° |
| 2026-04-30 14:45 | 20.78283 | 111.31135 | 39087 ft | 519 kts | 70° |
| 2026-04-30 14:46 | 20.80699 | 111.38364 | 39009 ft | 520 kts | 70° |
| 2026-04-30 14:46 | 20.83119 | 111.45620 | 38994 ft | 518 kts | 70° |
| 2026-04-30 14:47 | 20.85203 | 111.53007 | 38995 ft | 521 kts | 76° |
| 2026-04-30 14:47 | 20.86826 | 111.60503 | 38992 ft | 520 kts | 77° |
| 2026-04-30 14:48 | 20.88416 | 111.68005 | 38990 ft | 518 kts | 77° |
| 2026-04-30 14:48 | 20.90058 | 111.75558 | 38997 ft | 520 kts | 77° |
| 2026-04-30 14:49 | 20.91706 | 111.83072 | 38992 ft | 520 kts | 77° |
| 2026-04-30 14:49 | 20.93368 | 111.90648 | 38993 ft | 519 kts | 77° |
| 2026-04-30 14:50 | 20.95834 | 112.01936 | 38995 ft | 520 kts | 77° |
| 2026-04-30 14:51 | 20.98291 | 112.13222 | 38996 ft | 520 kts | 77° |
| 2026-04-30 14:52 | 21.00731 | 112.24466 | 38997 ft | 521 kts | 77° |
| 2026-04-30 14:52 | 21.03177 | 112.35777 | 39000 ft | 520 kts | 77° |
| 2026-04-30 14:53 | 21.05622 | 112.47120 | 39001 ft | 523 kts | 77° |
| 2026-04-30 14:54 | 21.08855 | 112.62186 | 39006 ft | 522 kts | 77° |
| 2026-04-30 14:55 | 21.11297 | 112.73607 | 39009 ft | 522 kts | 77° |
| 2026-04-30 14:56 | 21.14548 | 112.88872 | 39007 ft | 523 kts | 77° |
| 2026-04-30 14:57 | 21.16956 | 113.00232 | 39013 ft | 523 kts | 77° |
| 2026-04-30 14:57 | 21.18565 | 113.07842 | 38314 ft | 533 kts | 77° |
| 2026-04-30 14:58 | 21.20177 | 113.15488 | 36985 ft | 523 kts | 77° |
| 2026-04-30 14:58 | 21.20972 | 113.19265 | 36326 ft | 518 kts | 77° |
| 2026-04-30 14:58 | 21.22539 | 113.26724 | 35015 ft | 508 kts | 77° |
| 2026-04-30 14:59 | 21.23944 | 113.34048 | 33718 ft | 499 kts | 80° |
| 2026-04-30 15:00 | 21.26188 | 113.44727 | 31890 ft | 488 kts | 75° |
| 2026-04-30 15:00 | 21.27996 | 113.51660 | 30710 ft | 479 kts | 65° |
| 2026-04-30 15:01 | 21.31391 | 113.57906 | 29381 ft | 473 kts | 54° |
| 2026-04-30 15:01 | 21.33575 | 113.60693 | 28680 ft | 467 kts | 40° |
| 2026-04-30 15:01 | 21.39328 | 113.64671 | 27304 ft | 458 kts | 23° |
| 2026-04-30 15:02 | 21.42304 | 113.66238 | 26637 ft | 456 kts | 22° |
| 2026-04-30 15:02 | 21.45298 | 113.67746 | 25960 ft | 454 kts | 21° |
| 2026-04-30 15:03 | 21.54423 | 113.72059 | 23670 ft | 442 kts | 20° |
| 2026-04-30 15:03 | 21.60249 | 113.74728 | 22067 ft | 423 kts | 19° |
| 2026-04-30 15:04 | 21.65879 | 113.77294 | 20471 ft | 407 kts | 19° |
| 2026-04-30 15:04 | 21.73688 | 113.80856 | 18165 ft | 388 kts | 19° |
| 2026-04-30 15:05 | 21.81087 | 113.84237 | 15891 ft | 372 kts | 19° |
| 2026-04-30 15:06 | 21.85799 | 113.86391 | 14388 ft | 363 kts | 19° |
| 2026-04-30 15:06 | 21.90403 | 113.88500 | 12872 ft | 355 kts | 19° |
| 2026-04-30 15:07 | 21.94883 | 113.90553 | 11357 ft | 348 kts | 19° |
| 2026-04-30 15:07 | 21.99273 | 113.92568 | 10021 ft | 334 kts | 20° |
| 2026-04-30 15:08 | 22.03451 | 113.94419 | 9007 ft | 316 kts | 19° |
| 2026-04-30 15:08 | 22.09456 | 113.96986 | 8079 ft | 297 kts | 19° |
| 2026-04-30 15:09 | 22.13280 | 113.98386 | 8008 ft | 285 kts | 360° |
| 2026-04-30 15:09 | 22.16904 | 113.97018 | 8008 ft | 279 kts | 327° |
| 2026-04-30 15:10 | 22.20204 | 113.94891 | 7657 ft | 268 kts | 327° |
| 2026-04-30 15:11 | 22.21543 | 113.88704 | 6534 ft | 248 kts | 240° |
| 2026-04-30 15:11 | 22.21537 | 113.85303 | 6046 ft | 231 kts | 308° |
| 2026-04-30 15:12 | 22.25471 | 113.85292 | 5565 ft | 203 kts | 40° |
| 2026-04-30 15:13 | 22.27492 | 113.87344 | 5287 ft | 197 kts | 42° |
| 2026-04-30 15:14 | 22.31021 | 113.91782 | 4771 ft | 196 kts | 67° |
| 2026-04-30 15:14 | 22.31842 | 113.95978 | 4188 ft | 176 kts | 84° |
| 2026-04-30 15:16 | 22.32142 | 114.01869 | 3116 ft | 143 kts | 83° |
| 2026-04-30 15:17 | 22.32428 | 114.06094 | 2409 ft | 139 kts | 83° |
| 2026-04-30 15:18 | 22.32764 | 114.11238 | 1498 ft | 138 kts | 84° |
| 2026-04-30 15:19 | 22.32964 | 114.14337 | 962 ft | 138 kts | 84° |